sensor_id;sensor_type;location;lat;lon;timestamp;P1;durP1;ratioP1;P2;durP2;ratioP2
21492;SDS011;10908;50.690;4.400;2024-01-11T00:00:58;38.60;;;14.77;;
21492;SDS011;10908;50.690;4.400;2024-01-11T00:03:24;39.85;;;14.90;;
21492;SDS011;10908;50.690;4.400;2024-01-11T00:05:50;37.83;;;15.25;;
21492;SDS011;10908;50.690;4.400;2024-01-11T00:08:16;37.92;;;15.27;;
21492;SDS011;10908;50.690;4.400;2024-01-11T00:10:41;36.13;;;15.82;;
21492;SDS011;10908;50.690;4.400;2024-01-11T00:13:07;40.95;;;16.00;;
21492;SDS011;10908;50.690;4.400;2024-01-11T00:15:33;37.80;;;15.48;;
21492;SDS011;10908;50.690;4.400;2024-01-11T00:17:58;36.55;;;15.02;;
21492;SDS011;10908;50.690;4.400;2024-01-11T00:20:24;48.50;;;16.65;;
21492;SDS011;10908;50.690;4.400;2024-01-11T00:22:50;34.78;;;14.70;;
21492;SDS011;10908;50.690;4.400;2024-01-11T00:25:16;37.00;;;15.10;;
21492;SDS011;10908;50.690;4.400;2024-01-11T00:27:42;37.22;;;15.30;;
21492;SDS011;10908;50.690;4.400;2024-01-11T00:30:08;36.78;;;15.07;;
21492;SDS011;10908;50.690;4.400;2024-01-11T00:32:34;35.83;;;14.63;;
21492;SDS011;10908;50.690;4.400;2024-01-11T00:35:00;40.75;;;15.00;;
21492;SDS011;10908;50.690;4.400;2024-01-11T00:37:25;36.38;;;15.10;;
21492;SDS011;10908;50.690;4.400;2024-01-11T00:39:51;43.22;;;16.58;;
21492;SDS011;10908;50.690;4.400;2024-01-11T00:42:17;37.60;;;15.00;;
21492;SDS011;10908;50.690;4.400;2024-01-11T00:44:43;40.17;;;14.75;;
21492;SDS011;10908;50.690;4.400;2024-01-11T00:47:10;37.05;;;15.27;;
21492;SDS011;10908;50.690;4.400;2024-01-11T00:49:36;36.00;;;14.50;;
21492;SDS011;10908;50.690;4.400;2024-01-11T00:52:01;40.15;;;14.73;;
21492;SDS011;10908;50.690;4.400;2024-01-11T00:54:27;33.65;;;13.40;;
21492;SDS011;10908;50.690;4.400;2024-01-11T00:56:53;36.78;;;14.93;;
21492;SDS011;10908;50.690;4.400;2024-01-11T00:59:18;33.90;;;14.63;;
21492;SDS011;10908;50.690;4.400;2024-01-11T01:01:48;38.28;;;14.90;;
21492;SDS011;10908;50.690;4.400;2024-01-11T01:04:14;31.67;;;14.30;;
21492;SDS011;10908;50.690;4.400;2024-01-11T01:06:40;39.45;;;15.55;;
21492;SDS011;10908;50.690;4.400;2024-01-11T01:09:06;35.00;;;14.25;;
21492;SDS011;10908;50.690;4.400;2024-01-11T01:11:32;35.92;;;15.57;;
21492;SDS011;10908;50.690;4.400;2024-01-11T01:13:57;42.78;;;15.55;;
21492;SDS011;10908;50.690;4.400;2024-01-11T01:16:23;41.70;;;14.90;;
21492;SDS011;10908;50.690;4.400;2024-01-11T01:18:49;32.65;;;13.63;;
21492;SDS011;10908;50.690;4.400;2024-01-11T01:21:14;37.55;;;14.38;;
21492;SDS011;10908;50.690;4.400;2024-01-11T01:23:40;36.97;;;14.98;;
21492;SDS011;10908;50.690;4.400;2024-01-11T01:26:06;33.03;;;14.25;;
21492;SDS011;10908;50.690;4.400;2024-01-11T01:28:32;37.05;;;15.88;;
21492;SDS011;10908;50.690;4.400;2024-01-11T01:30:57;35.17;;;13.88;;
21492;SDS011;10908;50.690;4.400;2024-01-11T01:33:23;36.95;;;14.23;;
21492;SDS011;10908;50.690;4.400;2024-01-11T01:35:49;39.33;;;15.27;;
21492;SDS011;10908;50.690;4.400;2024-01-11T01:38:15;40.78;;;15.50;;
21492;SDS011;10908;50.690;4.400;2024-01-11T01:40:42;39.42;;;15.55;;
21492;SDS011;10908;50.690;4.400;2024-01-11T01:43:08;42.47;;;15.60;;
21492;SDS011;10908;50.690;4.400;2024-01-11T01:45:34;33.65;;;14.85;;
21492;SDS011;10908;50.690;4.400;2024-01-11T01:48:00;39.40;;;14.88;;
21492;SDS011;10908;50.690;4.400;2024-01-11T01:50:27;36.65;;;14.63;;
21492;SDS011;10908;50.690;4.400;2024-01-11T01:52:54;40.53;;;15.30;;
21492;SDS011;10908;50.690;4.400;2024-01-11T01:55:21;37.53;;;15.35;;
21492;SDS011;10908;50.690;4.400;2024-01-11T01:57:48;34.40;;;14.02;;
21492;SDS011;10908;50.690;4.400;2024-01-11T02:00:15;41.13;;;15.35;;
21492;SDS011;10908;50.690;4.400;2024-01-11T02:02:43;37.00;;;14.57;;
21492;SDS011;10908;50.690;4.400;2024-01-11T02:05:12;38.08;;;14.82;;
21492;SDS011;10908;50.690;4.400;2024-01-11T02:07:39;36.08;;;15.05;;
21492;SDS011;10908;50.690;4.400;2024-01-11T02:10:06;40.65;;;15.55;;
21492;SDS011;10908;50.690;4.400;2024-01-11T02:12:32;37.03;;;15.52;;
21492;SDS011;10908;50.690;4.400;2024-01-11T02:15:05;35.90;;;15.20;;
21492;SDS011;10908;50.690;4.400;2024-01-11T02:17:31;42.95;;;15.35;;
21492;SDS011;10908;50.690;4.400;2024-01-11T02:19:57;36.17;;;15.10;;
21492;SDS011;10908;50.690;4.400;2024-01-11T02:22:31;36.58;;;15.00;;
21492;SDS011;10908;50.690;4.400;2024-01-11T02:24:59;36.33;;;15.57;;
21492;SDS011;10908;50.690;4.400;2024-01-11T02:27:25;37.15;;;14.93;;
21492;SDS011;10908;50.690;4.400;2024-01-11T02:29:51;35.63;;;15.63;;
21492;SDS011;10908;50.690;4.400;2024-01-11T02:32:17;38.58;;;16.45;;
21492;SDS011;10908;50.690;4.400;2024-01-11T02:34:43;37.88;;;15.05;;
21492;SDS011;10908;50.690;4.400;2024-01-11T02:37:09;38.75;;;15.45;;
21492;SDS011;10908;50.690;4.400;2024-01-11T02:39:34;37.05;;;13.95;;
21492;SDS011;10908;50.690;4.400;2024-01-11T02:42:00;35.92;;;14.80;;
21492;SDS011;10908;50.690;4.400;2024-01-11T02:44:27;39.75;;;15.55;;
21492;SDS011;10908;50.690;4.400;2024-01-11T02:46:52;38.75;;;15.05;;
21492;SDS011;10908;50.690;4.400;2024-01-11T02:49:18;39.38;;;15.55;;
21492;SDS011;10908;50.690;4.400;2024-01-11T02:51:44;36.42;;;15.50;;
21492;SDS011;10908;50.690;4.400;2024-01-11T02:54:10;38.53;;;15.65;;
21492;SDS011;10908;50.690;4.400;2024-01-11T02:56:35;40.75;;;16.20;;
21492;SDS011;10908;50.690;4.400;2024-01-11T02:59:01;32.33;;;14.65;;
21492;SDS011;10908;50.690;4.400;2024-01-11T03:01:27;36.08;;;14.98;;
21492;SDS011;10908;50.690;4.400;2024-01-11T03:03:52;39.10;;;16.13;;
21492;SDS011;10908;50.690;4.400;2024-01-11T03:06:19;40.95;;;15.80;;
21492;SDS011;10908;50.690;4.400;2024-01-11T03:08:49;32.72;;;14.75;;
21492;SDS011;10908;50.690;4.400;2024-01-11T03:11:15;33.92;;;14.82;;
21492;SDS011;10908;50.690;4.400;2024-01-11T03:13:41;35.97;;;14.93;;
21492;SDS011;10908;50.690;4.400;2024-01-11T03:16:07;40.35;;;14.32;;
21492;SDS011;10908;50.690;4.400;2024-01-11T03:18:33;36.03;;;15.13;;
21492;SDS011;10908;50.690;4.400;2024-01-11T03:20:58;39.22;;;15.77;;
21492;SDS011;10908;50.690;4.400;2024-01-11T03:23:24;41.63;;;15.65;;
21492;SDS011;10908;50.690;4.400;2024-01-11T03:25:50;35.60;;;15.13;;
21492;SDS011;10908;50.690;4.400;2024-01-11T03:28:15;37.67;;;15.48;;
21492;SDS011;10908;50.690;4.400;2024-01-11T03:30:41;41.78;;;15.63;;
21492;SDS011;10908;50.690;4.400;2024-01-11T03:33:06;38.78;;;15.27;;
21492;SDS011;10908;50.690;4.400;2024-01-11T03:35:32;38.78;;;14.63;;
21492;SDS011;10908;50.690;4.400;2024-01-11T03:37:58;38.60;;;16.25;;
21492;SDS011;10908;50.690;4.400;2024-01-11T03:40:23;36.10;;;15.82;;
21492;SDS011;10908;50.690;4.400;2024-01-11T03:42:49;35.72;;;15.23;;
21492;SDS011;10908;50.690;4.400;2024-01-11T03:45:17;37.20;;;15.30;;
21492;SDS011;10908;50.690;4.400;2024-01-11T03:47:44;36.72;;;15.00;;
21492;SDS011;10908;50.690;4.400;2024-01-11T03:50:10;36.95;;;15.13;;
21492;SDS011;10908;50.690;4.400;2024-01-11T03:52:36;38.50;;;15.60;;
21492;SDS011;10908;50.690;4.400;2024-01-11T03:55:01;33.22;;;14.90;;
21492;SDS011;10908;50.690;4.400;2024-01-11T03:57:27;30.00;;;13.73;;
21492;SDS011;10908;50.690;4.400;2024-01-11T03:59:53;37.75;;;16.38;;
21492;SDS011;10908;50.690;4.400;2024-01-11T04:02:18;35.33;;;14.77;;
21492;SDS011;10908;50.690;4.400;2024-01-11T04:04:44;34.05;;;14.77;;
21492;SDS011;10908;50.690;4.400;2024-01-11T04:07:10;36.85;;;16.00;;
21492;SDS011;10908;50.690;4.400;2024-01-11T04:09:37;33.13;;;14.13;;
21492;SDS011;10908;50.690;4.400;2024-01-11T04:12:03;36.58;;;15.15;;
21492;SDS011;10908;50.690;4.400;2024-01-11T04:14:30;37.35;;;15.10;;
21492;SDS011;10908;50.690;4.400;2024-01-11T04:16:56;41.65;;;16.05;;
21492;SDS011;10908;50.690;4.400;2024-01-11T04:19:22;38.10;;;15.63;;
21492;SDS011;10908;50.690;4.400;2024-01-11T04:21:47;36.60;;;14.82;;
21492;SDS011;10908;50.690;4.400;2024-01-11T04:24:13;34.05;;;14.48;;
21492;SDS011;10908;50.690;4.400;2024-01-11T04:26:38;34.22;;;15.55;;
21492;SDS011;10908;50.690;4.400;2024-01-11T04:29:04;41.10;;;15.57;;
21492;SDS011;10908;50.690;4.400;2024-01-11T04:31:43;32.00;;;14.77;;
21492;SDS011;10908;50.690;4.400;2024-01-11T04:34:09;34.38;;;15.35;;
21492;SDS011;10908;50.690;4.400;2024-01-11T04:36:37;37.33;;;15.07;;
21492;SDS011;10908;50.690;4.400;2024-01-11T04:39:03;34.53;;;15.20;;
21492;SDS011;10908;50.690;4.400;2024-01-11T04:41:29;34.78;;;15.00;;
21492;SDS011;10908;50.690;4.400;2024-01-11T04:43:54;36.33;;;15.00;;
21492;SDS011;10908;50.690;4.400;2024-01-11T04:46:20;35.35;;;14.80;;
21492;SDS011;10908;50.690;4.400;2024-01-11T04:48:47;36.85;;;14.35;;
21492;SDS011;10908;50.690;4.400;2024-01-11T04:51:14;36.42;;;15.30;;
21492;SDS011;10908;50.690;4.400;2024-01-11T04:53:41;34.35;;;14.27;;
21492;SDS011;10908;50.690;4.400;2024-01-11T04:56:07;38.97;;;15.70;;
21492;SDS011;10908;50.690;4.400;2024-01-11T04:58:34;37.38;;;15.50;;
21492;SDS011;10908;50.690;4.400;2024-01-11T05:01:00;35.47;;;15.23;;
21492;SDS011;10908;50.690;4.400;2024-01-11T05:03:26;34.35;;;15.27;;
21492;SDS011;10908;50.690;4.400;2024-01-11T05:05:52;34.10;;;15.20;;
21492;SDS011;10908;50.690;4.400;2024-01-11T05:08:18;40.13;;;15.68;;
21492;SDS011;10908;50.690;4.400;2024-01-11T05:10:44;36.70;;;15.95;;
21492;SDS011;10908;50.690;4.400;2024-01-11T05:13:10;32.67;;;14.63;;
21492;SDS011;10908;50.690;4.400;2024-01-11T05:15:35;35.58;;;15.43;;
21492;SDS011;10908;50.690;4.400;2024-01-11T05:18:01;36.10;;;15.68;;
21492;SDS011;10908;50.690;4.400;2024-01-11T05:20:27;33.33;;;14.57;;
21492;SDS011;10908;50.690;4.400;2024-01-11T05:22:52;36.92;;;15.27;;
21492;SDS011;10908;50.690;4.400;2024-01-11T05:25:19;37.67;;;15.23;;
21492;SDS011;10908;50.690;4.400;2024-01-11T05:27:45;35.65;;;15.18;;
21492;SDS011;10908;50.690;4.400;2024-01-11T05:30:10;35.15;;;15.10;;
21492;SDS011;10908;50.690;4.400;2024-01-11T05:32:36;36.95;;;15.63;;
21492;SDS011;10908;50.690;4.400;2024-01-11T05:35:02;36.33;;;15.18;;
21492;SDS011;10908;50.690;4.400;2024-01-11T05:37:27;38.33;;;15.57;;
21492;SDS011;10908;50.690;4.400;2024-01-11T05:39:53;34.80;;;14.75;;
21492;SDS011;10908;50.690;4.400;2024-01-11T05:42:19;33.80;;;15.18;;
21492;SDS011;10908;50.690;4.400;2024-01-11T05:44:45;33.63;;;14.95;;
21492;SDS011;10908;50.690;4.400;2024-01-11T05:47:10;32.63;;;14.52;;
21492;SDS011;10908;50.690;4.400;2024-01-11T05:49:36;36.45;;;15.80;;
21492;SDS011;10908;50.690;4.400;2024-01-11T05:55:26;42.47;;;15.80;;
21492;SDS011;10908;50.690;4.400;2024-01-11T05:57:58;37.17;;;15.20;;
21492;SDS011;10908;50.690;4.400;2024-01-11T06:00:23;33.20;;;14.30;;
21492;SDS011;10908;50.690;4.400;2024-01-11T06:02:50;35.97;;;14.75;;
21492;SDS011;10908;50.690;4.400;2024-01-11T06:05:15;36.75;;;16.75;;
21492;SDS011;10908;50.690;4.400;2024-01-11T06:07:41;35.95;;;15.90;;
21492;SDS011;10908;50.690;4.400;2024-01-11T06:10:07;37.42;;;15.52;;
21492;SDS011;10908;50.690;4.400;2024-01-11T06:12:34;37.42;;;15.38;;
21492;SDS011;10908;50.690;4.400;2024-01-11T06:15:00;42.25;;;16.73;;
21492;SDS011;10908;50.690;4.400;2024-01-11T06:17:26;34.95;;;15.38;;
21492;SDS011;10908;50.690;4.400;2024-01-11T06:19:52;38.45;;;16.25;;
21492;SDS011;10908;50.690;4.400;2024-01-11T06:22:18;37.63;;;15.63;;
21492;SDS011;10908;50.690;4.400;2024-01-11T06:24:43;36.03;;;15.85;;
21492;SDS011;10908;50.690;4.400;2024-01-11T06:27:09;36.35;;;16.33;;
21492;SDS011;10908;50.690;4.400;2024-01-11T06:29:35;36.95;;;15.57;;
21492;SDS011;10908;50.690;4.400;2024-01-11T06:32:01;35.70;;;15.70;;
21492;SDS011;10908;50.690;4.400;2024-01-11T06:34:27;37.17;;;16.70;;
21492;SDS011;10908;50.690;4.400;2024-01-11T06:36:53;36.63;;;16.20;;
21492;SDS011;10908;50.690;4.400;2024-01-11T06:39:19;41.53;;;16.58;;
21492;SDS011;10908;50.690;4.400;2024-01-11T06:41:45;34.83;;;15.90;;
21492;SDS011;10908;50.690;4.400;2024-01-11T06:44:11;39.92;;;16.60;;
21492;SDS011;10908;50.690;4.400;2024-01-11T06:46:37;38.78;;;16.35;;
21492;SDS011;10908;50.690;4.400;2024-01-11T06:49:04;41.47;;;16.77;;
21492;SDS011;10908;50.690;4.400;2024-01-11T06:51:30;41.72;;;16.80;;
21492;SDS011;10908;50.690;4.400;2024-01-11T06:53:56;41.55;;;16.73;;
21492;SDS011;10908;50.690;4.400;2024-01-11T06:56:22;36.08;;;16.88;;
21492;SDS011;10908;50.690;4.400;2024-01-11T06:58:48;39.17;;;16.02;;
21492;SDS011;10908;50.690;4.400;2024-01-11T07:01:14;42.35;;;17.20;;
21492;SDS011;10908;50.690;4.400;2024-01-11T07:03:40;39.42;;;16.27;;
21492;SDS011;10908;50.690;4.400;2024-01-11T07:06:06;40.28;;;16.52;;
21492;SDS011;10908;50.690;4.400;2024-01-11T07:08:32;42.53;;;16.08;;
21492;SDS011;10908;50.690;4.400;2024-01-11T07:10:59;44.08;;;16.63;;
21492;SDS011;10908;50.690;4.400;2024-01-11T07:13:29;39.60;;;16.42;;
21492;SDS011;10908;50.690;4.400;2024-01-11T07:15:55;43.25;;;16.92;;
21492;SDS011;10908;50.690;4.400;2024-01-11T07:18:22;39.58;;;16.83;;
21492;SDS011;10908;50.690;4.400;2024-01-11T07:20:49;47.75;;;17.98;;
21492;SDS011;10908;50.690;4.400;2024-01-11T07:23:15;42.15;;;17.83;;
21492;SDS011;10908;50.690;4.400;2024-01-11T07:25:41;46.63;;;17.25;;
21492;SDS011;10908;50.690;4.400;2024-01-11T07:28:07;40.42;;;17.40;;
21492;SDS011;10908;50.690;4.400;2024-01-11T07:30:33;39.13;;;17.20;;
21492;SDS011;10908;50.690;4.400;2024-01-11T07:32:59;40.38;;;17.33;;
21492;SDS011;10908;50.690;4.400;2024-01-11T07:35:25;39.70;;;17.75;;
21492;SDS011;10908;50.690;4.400;2024-01-11T07:37:51;38.60;;;16.33;;
21492;SDS011;10908;50.690;4.400;2024-01-11T07:40:17;43.50;;;18.40;;
21492;SDS011;10908;50.690;4.400;2024-01-11T07:42:43;45.60;;;18.67;;
21492;SDS011;10908;50.690;4.400;2024-01-11T07:45:11;40.58;;;17.70;;
21492;SDS011;10908;50.690;4.400;2024-01-11T07:47:36;43.05;;;18.35;;
21492;SDS011;10908;50.690;4.400;2024-01-11T07:50:06;43.17;;;18.08;;
21492;SDS011;10908;50.690;4.400;2024-01-11T07:52:34;39.38;;;16.90;;
21492;SDS011;10908;50.690;4.400;2024-01-11T07:55:01;41.13;;;17.23;;
21492;SDS011;10908;50.690;4.400;2024-01-11T07:57:32;40.90;;;17.17;;
21492;SDS011;10908;50.690;4.400;2024-01-11T08:00:02;43.60;;;18.58;;
21492;SDS011;10908;50.690;4.400;2024-01-11T08:02:28;45.70;;;18.65;;
21492;SDS011;10908;50.690;4.400;2024-01-11T08:04:54;44.22;;;19.10;;
21492;SDS011;10908;50.690;4.400;2024-01-11T08:07:20;46.33;;;18.42;;
21492;SDS011;10908;50.690;4.400;2024-01-11T08:09:46;46.13;;;18.63;;
21492;SDS011;10908;50.690;4.400;2024-01-11T08:12:13;43.65;;;18.23;;
21492;SDS011;10908;50.690;4.400;2024-01-11T08:14:41;49.80;;;18.98;;
21492;SDS011;10908;50.690;4.400;2024-01-11T08:17:07;43.53;;;19.10;;
21492;SDS011;10908;50.690;4.400;2024-01-11T08:19:33;41.50;;;17.85;;
21492;SDS011;10908;50.690;4.400;2024-01-11T08:21:59;42.38;;;19.02;;
21492;SDS011;10908;50.690;4.400;2024-01-11T08:24:26;46.63;;;18.23;;
21492;SDS011;10908;50.690;4.400;2024-01-11T08:26:52;39.22;;;17.70;;
21492;SDS011;10908;50.690;4.400;2024-01-11T08:29:18;41.63;;;18.65;;
21492;SDS011;10908;50.690;4.400;2024-01-11T08:31:47;44.10;;;18.13;;
21492;SDS011;10908;50.690;4.400;2024-01-11T08:34:13;43.95;;;18.05;;
21492;SDS011;10908;50.690;4.400;2024-01-11T08:36:39;45.13;;;18.60;;
21492;SDS011;10908;50.690;4.400;2024-01-11T08:39:05;44.17;;;19.00;;
21492;SDS011;10908;50.690;4.400;2024-01-11T08:41:32;47.17;;;19.83;;
21492;SDS011;10908;50.690;4.400;2024-01-11T08:43:58;47.65;;;20.00;;
21492;SDS011;10908;50.690;4.400;2024-01-11T08:46:27;44.92;;;20.17;;
21492;SDS011;10908;50.690;4.400;2024-01-11T08:48:53;47.15;;;20.63;;
21492;SDS011;10908;50.690;4.400;2024-01-11T08:51:21;41.85;;;18.83;;
21492;SDS011;10908;50.690;4.400;2024-01-11T08:53:46;51.67;;;20.33;;
21492;SDS011;10908;50.690;4.400;2024-01-11T08:56:12;49.08;;;21.15;;
21492;SDS011;10908;50.690;4.400;2024-01-11T08:58:39;50.55;;;20.35;;
21492;SDS011;10908;50.690;4.400;2024-01-11T09:01:05;46.10;;;19.85;;
21492;SDS011;10908;50.690;4.400;2024-01-11T09:03:33;48.38;;;19.92;;
21492;SDS011;10908;50.690;4.400;2024-01-11T09:06:00;47.30;;;20.65;;
21492;SDS011;10908;50.690;4.400;2024-01-11T09:08:27;53.42;;;22.95;;
21492;SDS011;10908;50.690;4.400;2024-01-11T09:10:53;46.63;;;20.25;;
21492;SDS011;10908;50.690;4.400;2024-01-11T09:13:18;48.30;;;22.20;;
21492;SDS011;10908;50.690;4.400;2024-01-11T09:15:44;54.20;;;22.27;;
21492;SDS011;10908;50.690;4.400;2024-01-11T09:18:10;53.38;;;21.85;;
21492;SDS011;10908;50.690;4.400;2024-01-11T09:20:36;48.88;;;21.55;;
21492;SDS011;10908;50.690;4.400;2024-01-11T09:23:02;51.45;;;23.38;;
21492;SDS011;10908;50.690;4.400;2024-01-11T09:25:31;48.17;;;21.52;;
21492;SDS011;10908;50.690;4.400;2024-01-11T09:27:57;52.10;;;22.13;;
21492;SDS011;10908;50.690;4.400;2024-01-11T09:30:23;47.20;;;22.13;;
21492;SDS011;10908;50.690;4.400;2024-01-11T09:32:49;49.17;;;22.35;;
21492;SDS011;10908;50.690;4.400;2024-01-11T09:35:15;55.40;;;22.17;;
21492;SDS011;10908;50.690;4.400;2024-01-11T09:37:41;51.28;;;21.33;;
21492;SDS011;10908;50.690;4.400;2024-01-11T09:40:07;43.33;;;20.13;;
21492;SDS011;10908;50.690;4.400;2024-01-11T09:42:39;49.25;;;22.20;;
21492;SDS011;10908;50.690;4.400;2024-01-11T09:45:09;53.22;;;23.00;;
21492;SDS011;10908;50.690;4.400;2024-01-11T09:47:38;54.60;;;24.95;;
21492;SDS011;10908;50.690;4.400;2024-01-11T09:50:05;59.60;;;23.70;;
21492;SDS011;10908;50.690;4.400;2024-01-11T09:52:32;57.58;;;24.33;;
21492;SDS011;10908;50.690;4.400;2024-01-11T09:54:58;52.72;;;23.85;;
21492;SDS011;10908;50.690;4.400;2024-01-11T09:57:26;49.25;;;22.23;;
21492;SDS011;10908;50.690;4.400;2024-01-11T09:59:57;51.20;;;24.20;;
21492;SDS011;10908;50.690;4.400;2024-01-11T10:02:23;53.38;;;24.20;;
21492;SDS011;10908;50.690;4.400;2024-01-11T10:04:51;54.42;;;23.60;;
21492;SDS011;10908;50.690;4.400;2024-01-11T10:07:18;54.97;;;22.85;;
21492;SDS011;10908;50.690;4.400;2024-01-11T10:09:47;51.67;;;23.50;;
21492;SDS011;10908;50.690;4.400;2024-01-11T10:12:13;52.20;;;21.77;;
21492;SDS011;10908;50.690;4.400;2024-01-11T10:14:39;52.13;;;22.50;;
21492;SDS011;10908;50.690;4.400;2024-01-11T10:17:05;49.13;;;22.63;;
21492;SDS011;10908;50.690;4.400;2024-01-11T10:19:31;50.00;;;22.58;;
21492;SDS011;10908;50.690;4.400;2024-01-11T10:21:57;54.95;;;23.15;;
21492;SDS011;10908;50.690;4.400;2024-01-11T10:24:26;46.20;;;20.75;;
21492;SDS011;10908;50.690;4.400;2024-01-11T10:26:55;54.90;;;23.02;;
21492;SDS011;10908;50.690;4.400;2024-01-11T10:29:21;45.50;;;22.75;;
21492;SDS011;10908;50.690;4.400;2024-01-11T10:31:46;57.90;;;23.27;;
21492;SDS011;10908;50.690;4.400;2024-01-11T10:34:12;52.17;;;22.27;;
21492;SDS011;10908;50.690;4.400;2024-01-11T10:36:38;48.90;;;22.25;;
21492;SDS011;10908;50.690;4.400;2024-01-11T10:39:05;50.22;;;22.45;;
21492;SDS011;10908;50.690;4.400;2024-01-11T10:41:38;48.47;;;22.33;;
21492;SDS011;10908;50.690;4.400;2024-01-11T10:44:12;47.97;;;21.30;;
21492;SDS011;10908;50.690;4.400;2024-01-11T10:46:43;42.55;;;18.88;;
21492;SDS011;10908;50.690;4.400;2024-01-11T10:49:11;44.10;;;21.58;;
21492;SDS011;10908;50.690;4.400;2024-01-11T10:51:40;44.42;;;20.13;;
21492;SDS011;10908;50.690;4.400;2024-01-11T10:54:09;47.97;;;20.83;;
21492;SDS011;10908;50.690;4.400;2024-01-11T10:56:35;45.65;;;20.25;;
21492;SDS011;10908;50.690;4.400;2024-01-11T10:59:04;42.53;;;19.10;;
21492;SDS011;10908;50.690;4.400;2024-01-11T11:01:30;40.85;;;21.10;;
21492;SDS011;10908;50.690;4.400;2024-01-11T11:03:56;45.33;;;20.92;;
21492;SDS011;10908;50.690;4.400;2024-01-11T11:06:23;45.95;;;21.02;;
21492;SDS011;10908;50.690;4.400;2024-01-11T11:08:49;42.92;;;19.48;;
21492;SDS011;10908;50.690;4.400;2024-01-11T11:11:16;51.22;;;21.60;;
21492;SDS011;10908;50.690;4.400;2024-01-11T11:13:43;44.33;;;19.92;;
21492;SDS011;10908;50.690;4.400;2024-01-11T11:16:14;44.60;;;20.35;;
21492;SDS011;10908;50.690;4.400;2024-01-11T11:18:40;50.25;;;21.20;;
21492;SDS011;10908;50.690;4.400;2024-01-11T11:21:08;42.30;;;18.88;;
21492;SDS011;10908;50.690;4.400;2024-01-11T11:23:36;43.30;;;19.88;;
21492;SDS011;10908;50.690;4.400;2024-01-11T11:26:02;47.65;;;20.85;;
21492;SDS011;10908;50.690;4.400;2024-01-11T11:28:32;43.15;;;18.70;;
21492;SDS011;10908;50.690;4.400;2024-01-11T11:30:59;42.53;;;18.90;;
21492;SDS011;10908;50.690;4.400;2024-01-11T11:33:27;41.08;;;19.70;;
21492;SDS011;10908;50.690;4.400;2024-01-11T11:35:58;44.25;;;18.85;;
21492;SDS011;10908;50.690;4.400;2024-01-11T11:38:25;51.65;;;20.60;;
21492;SDS011;10908;50.690;4.400;2024-01-11T11:40:56;40.65;;;18.65;;
21492;SDS011;10908;50.690;4.400;2024-01-11T11:43:24;45.97;;;20.17;;
21492;SDS011;10908;50.690;4.400;2024-01-11T11:45:52;43.35;;;19.60;;
21492;SDS011;10908;50.690;4.400;2024-01-11T11:51:07;47.17;;;18.95;;
21492;SDS011;10908;50.690;4.400;2024-01-11T11:53:34;40.15;;;17.52;;
21492;SDS011;10908;50.690;4.400;2024-01-11T11:56:04;41.55;;;18.40;;
21492;SDS011;10908;50.690;4.400;2024-01-11T11:58:31;38.35;;;17.65;;
21492;SDS011;10908;50.690;4.400;2024-01-11T12:00:58;35.65;;;17.60;;
21492;SDS011;10908;50.690;4.400;2024-01-11T12:03:26;37.13;;;17.73;;
21492;SDS011;10908;50.690;4.400;2024-01-11T12:05:55;38.70;;;17.90;;
21492;SDS011;10908;50.690;4.400;2024-01-11T12:08:21;39.08;;;17.38;;
21492;SDS011;10908;50.690;4.400;2024-01-11T12:10:47;40.35;;;18.67;;
21492;SDS011;10908;50.690;4.400;2024-01-11T12:13:13;39.55;;;18.10;;
21492;SDS011;10908;50.690;4.400;2024-01-11T12:15:39;37.20;;;17.63;;
21492;SDS011;10908;50.690;4.400;2024-01-11T12:18:06;40.53;;;18.08;;
21492;SDS011;10908;50.690;4.400;2024-01-11T12:20:32;37.50;;;16.45;;
21492;SDS011;10908;50.690;4.400;2024-01-11T12:22:59;38.20;;;16.55;;
21492;SDS011;10908;50.690;4.400;2024-01-11T12:25:25;35.83;;;15.98;;
21492;SDS011;10908;50.690;4.400;2024-01-11T12:27:51;34.13;;;16.23;;
21492;SDS011;10908;50.690;4.400;2024-01-11T12:30:17;35.72;;;17.45;;
21492;SDS011;10908;50.690;4.400;2024-01-11T12:32:43;38.50;;;15.73;;
21492;SDS011;10908;50.690;4.400;2024-01-11T12:35:10;33.38;;;15.88;;
21492;SDS011;10908;50.690;4.400;2024-01-11T12:37:36;40.13;;;17.13;;
21492;SDS011;10908;50.690;4.400;2024-01-11T12:40:02;36.65;;;16.05;;
21492;SDS011;10908;50.690;4.400;2024-01-11T12:42:28;34.13;;;15.95;;
21492;SDS011;10908;50.690;4.400;2024-01-11T12:44:54;36.53;;;15.48;;
21492;SDS011;10908;50.690;4.400;2024-01-11T12:47:20;35.95;;;14.45;;
21492;SDS011;10908;50.690;4.400;2024-01-11T12:49:46;36.00;;;15.63;;
21492;SDS011;10908;50.690;4.400;2024-01-11T12:52:18;33.25;;;14.73;;
21492;SDS011;10908;50.690;4.400;2024-01-11T12:54:52;31.05;;;15.07;;
21492;SDS011;10908;50.690;4.400;2024-01-11T12:57:20;28.05;;;13.68;;
21492;SDS011;10908;50.690;4.400;2024-01-11T12:59:46;31.85;;;14.73;;
21492;SDS011;10908;50.690;4.400;2024-01-11T13:02:13;28.10;;;13.80;;
21492;SDS011;10908;50.690;4.400;2024-01-11T13:04:39;29.40;;;14.63;;
21492;SDS011;10908;50.690;4.400;2024-01-11T13:07:08;29.58;;;13.98;;
21492;SDS011;10908;50.690;4.400;2024-01-11T13:09:35;32.70;;;14.30;;
21492;SDS011;10908;50.690;4.400;2024-01-11T13:12:01;29.35;;;13.00;;
21492;SDS011;10908;50.690;4.400;2024-01-11T13:14:26;30.17;;;13.52;;
21492;SDS011;10908;50.690;4.400;2024-01-11T13:16:54;28.90;;;12.82;;
21492;SDS011;10908;50.690;4.400;2024-01-11T13:19:19;30.70;;;13.35;;
21492;SDS011;10908;50.690;4.400;2024-01-11T13:21:45;29.50;;;14.10;;
21492;SDS011;10908;50.690;4.400;2024-01-11T13:24:11;27.83;;;13.07;;
21492;SDS011;10908;50.690;4.400;2024-01-11T13:26:38;28.40;;;13.75;;
21492;SDS011;10908;50.690;4.400;2024-01-11T13:29:05;34.38;;;15.43;;
21492;SDS011;10908;50.690;4.400;2024-01-11T13:31:31;33.92;;;15.80;;
21492;SDS011;10908;50.690;4.400;2024-01-11T13:33:57;29.63;;;14.10;;
21492;SDS011;10908;50.690;4.400;2024-01-11T13:36:23;29.73;;;13.75;;
21492;SDS011;10908;50.690;4.400;2024-01-11T13:38:49;32.72;;;14.70;;
21492;SDS011;10908;50.690;4.400;2024-01-11T13:41:15;29.08;;;14.25;;
21492;SDS011;10908;50.690;4.400;2024-01-11T13:43:42;31.10;;;14.50;;
21492;SDS011;10908;50.690;4.400;2024-01-11T13:46:08;34.60;;;14.40;;
21492;SDS011;10908;50.690;4.400;2024-01-11T13:48:34;27.70;;;13.18;;
21492;SDS011;10908;50.690;4.400;2024-01-11T13:51:00;33.85;;;14.95;;
21492;SDS011;10908;50.690;4.400;2024-01-11T13:53:28;27.42;;;13.15;;
21492;SDS011;10908;50.690;4.400;2024-01-11T13:55:54;33.35;;;14.27;;
21492;SDS011;10908;50.690;4.400;2024-01-11T13:58:20;30.55;;;14.23;;
21492;SDS011;10908;50.690;4.400;2024-01-11T14:00:46;26.30;;;13.13;;
21492;SDS011;10908;50.690;4.400;2024-01-11T14:03:12;29.85;;;13.48;;
21492;SDS011;10908;50.690;4.400;2024-01-11T14:05:38;30.02;;;13.77;;
21492;SDS011;10908;50.690;4.400;2024-01-11T14:08:04;29.65;;;13.50;;
21492;SDS011;10908;50.690;4.400;2024-01-11T14:10:33;29.10;;;13.70;;
21492;SDS011;10908;50.690;4.400;2024-01-11T14:12:59;26.90;;;13.23;;
21492;SDS011;10908;50.690;4.400;2024-01-11T14:15:26;27.02;;;13.38;;
21492;SDS011;10908;50.690;4.400;2024-01-11T14:17:52;31.73;;;13.88;;
21492;SDS011;10908;50.690;4.400;2024-01-11T14:20:18;26.48;;;13.90;;
21492;SDS011;10908;50.690;4.400;2024-01-11T14:22:44;26.60;;;12.50;;